Salem, Salem Airport (VOSM)

NameSalem Airport
CitySalem
CountryIndia
ICAOVOSM
IATASXV
Altitude307 m
CoordinatesGoogle Map
Live Air TrafficLiveATC.net
METARVOSM 180900Z 15006KT 7000 FEW020 36/21 Q1008 NOSIG
2019-02-18 09:00:00 Wind: Southeast (150°) 3.09 m/s - Visibility: 7000 m - Temperature: 36 °C - Dew point: 21 °C - Humidity: 41.6% - Pressure: 1008 hPa

Sorry, no flights used the airport in this database.